Terminal Aerodrome Forecast
Issued by NWS Mt. Holly, NJ

Home | Current Version | Previous Version | Text Only | Print | Product List | Glossary On
Versions: 1 2 3 4 5 6 7 8 9 10 11 12 13 14 15 16
000
FTUS41 KPHI 080540
TAFACY
TAF
KACY 080540Z 0806/0906 21007KT P6SM SKC
     FM081500 25010G17KT P6SM SCT050
     FM082100 23010KT P6SM BKN060 PROB30 0822/0901 3SM TSRA BR
      BKN030CB
     FM090100 24006KT P6SM BKN050=

USA.gov is the U.S. government's official web portal to all federal, state and local government web resources and services.